sensor_id;sensor_type;location;lat;lon;timestamp;temperature;humidity
11700;DHT22;5906;51.660;6.674;2023-04-01T00:01:05;10.30;99.90
11700;DHT22;5906;51.660;6.674;2023-04-01T00:03:34;10.30;99.90
11700;DHT22;5906;51.660;6.674;2023-04-01T00:06:02;10.30;99.90
11700;DHT22;5906;51.660;6.674;2023-04-01T00:08:29;10.40;99.90
11700;DHT22;5906;51.660;6.674;2023-04-01T00:10:57;10.30;99.90
11700;DHT22;5906;51.660;6.674;2023-04-01T00:13:25;10.30;99.90
11700;DHT22;5906;51.660;6.674;2023-04-01T00:15:54;10.30;99.90
11700;DHT22;5906;51.660;6.674;2023-04-01T00:18:22;10.30;99.90
11700;DHT22;5906;51.660;6.674;2023-04-01T00:20:50;10.30;99.90
11700;DHT22;5906;51.660;6.674;2023-04-01T00:23:18;10.30;99.90
11700;DHT22;5906;51.660;6.674;2023-04-01T00:25:46;10.20;99.90
11700;DHT22;5906;51.660;6.674;2023-04-01T00:28:19;10.30;99.90
11700;DHT22;5906;51.660;6.674;2023-04-01T00:30:47;10.30;99.90
11700;DHT22;5906;51.660;6.674;2023-04-01T00:33:14;10.30;99.90
11700;DHT22;5906;51.660;6.674;2023-04-01T00:35:41;10.30;99.90
11700;DHT22;5906;51.660;6.674;2023-04-01T00:38:08;10.20;99.90
11700;DHT22;5906;51.660;6.674;2023-04-01T00:40:43;10.30;99.90
11700;DHT22;5906;51.660;6.674;2023-04-01T00:43:21;10.20;99.90
11700;DHT22;5906;51.660;6.674;2023-04-01T00:45:49;10.20;99.90
11700;DHT22;5906;51.660;6.674;2023-04-01T00:48:17;10.20;99.90
11700;DHT22;5906;51.660;6.674;2023-04-01T00:50:52;10.20;99.90
11700;DHT22;5906;51.660;6.674;2023-04-01T00:53:21;10.20;99.90
11700;DHT22;5906;51.660;6.674;2023-04-01T00:58:43;10.10;99.90
11700;DHT22;5906;51.660;6.674;2023-04-01T01:01:10;10.10;99.90
11700;DHT22;5906;51.660;6.674;2023-04-01T01:03:37;10.20;99.90
11700;DHT22;5906;51.660;6.674;2023-04-01T01:12:24;10.10;99.90
11700;DHT22;5906;51.660;6.674;2023-04-01T01:17:23;10.20;99.90
11700;DHT22;5906;51.660;6.674;2023-04-01T01:28:47;10.10;99.90
11700;DHT22;5906;51.660;6.674;2023-04-01T01:31:31;10.10;99.90
11700;DHT22;5906;51.660;6.674;2023-04-01T01:36:45;10.10;99.90
11700;DHT22;5906;51.660;6.674;2023-04-01T01:39:14;10.00;99.90
11700;DHT22;5906;51.660;6.674;2023-04-01T01:41:43;10.00;99.90
11700;DHT22;5906;51.660;6.674;2023-04-01T01:44:14;10.00;99.90
11700;DHT22;5906;51.660;6.674;2023-04-01T01:46:43;10.00;99.90
11700;DHT22;5906;51.660;6.674;2023-04-01T01:49:12;10.00;99.90
11700;DHT22;5906;51.660;6.674;2023-04-01T01:51:41;10.00;99.90
11700;DHT22;5906;51.660;6.674;2023-04-01T01:54:14;10.00;99.90
11700;DHT22;5906;51.660;6.674;2023-04-01T01:56:45;10.00;99.90
11700;DHT22;5906;51.660;6.674;2023-04-01T01:59:15;10.00;99.90
11700;DHT22;5906;51.660;6.674;2023-04-01T02:01:48;10.00;99.90
11700;DHT22;5906;51.660;6.674;2023-04-01T02:04:18;10.00;99.90
11700;DHT22;5906;51.660;6.674;2023-04-01T02:06:55;10.00;99.90
11700;DHT22;5906;51.660;6.674;2023-04-01T02:09:24;10.10;99.90
11700;DHT22;5906;51.660;6.674;2023-04-01T02:12:00;10.10;99.90
11700;DHT22;5906;51.660;6.674;2023-04-01T02:17:23;10.00;99.90
11700;DHT22;5906;51.660;6.674;2023-04-01T02:19:56;10.00;99.90
11700;DHT22;5906;51.660;6.674;2023-04-01T02:22:26;10.10;99.90
11700;DHT22;5906;51.660;6.674;2023-04-01T02:24:58;10.10;99.90
11700;DHT22;5906;51.660;6.674;2023-04-01T02:27:26;10.10;99.90
11700;DHT22;5906;51.660;6.674;2023-04-01T02:29:53;10.10;99.90
11700;DHT22;5906;51.660;6.674;2023-04-01T02:32:21;10.10;99.90
11700;DHT22;5906;51.660;6.674;2023-04-01T02:34:48;10.20;99.90
11700;DHT22;5906;51.660;6.674;2023-04-01T02:37:16;10.20;99.90
11700;DHT22;5906;51.660;6.674;2023-04-01T02:39:44;10.20;99.90
11700;DHT22;5906;51.660;6.674;2023-04-01T02:42:11;10.20;99.90
11700;DHT22;5906;51.660;6.674;2023-04-01T02:44:38;10.30;99.90
11700;DHT22;5906;51.660;6.674;2023-04-01T02:47:05;10.30;99.90
11700;DHT22;5906;51.660;6.674;2023-04-01T02:49:32;10.20;99.90
11700;DHT22;5906;51.660;6.674;2023-04-01T02:51:59;10.20;99.90
11700;DHT22;5906;51.660;6.674;2023-04-01T02:54:26;10.20;99.90
11700;DHT22;5906;51.660;6.674;2023-04-01T02:56:54;10.20;99.90
11700;DHT22;5906;51.660;6.674;2023-04-01T02:59:21;10.20;99.90
11700;DHT22;5906;51.660;6.674;2023-04-01T03:01:48;10.20;99.90
11700;DHT22;5906;51.660;6.674;2023-04-01T03:04:15;10.10;99.90
11700;DHT22;5906;51.660;6.674;2023-04-01T03:06:42;10.10;99.90
11700;DHT22;5906;51.660;6.674;2023-04-01T03:09:09;10.10;99.90
11700;DHT22;5906;51.660;6.674;2023-04-01T03:11:36;10.10;99.90
11700;DHT22;5906;51.660;6.674;2023-04-01T03:14:03;10.10;99.90
11700;DHT22;5906;51.660;6.674;2023-04-01T03:16:30;10.10;99.90
11700;DHT22;5906;51.660;6.674;2023-04-01T03:18:57;10.10;99.90
11700;DHT22;5906;51.660;6.674;2023-04-01T03:21:26;10.10;99.90
11700;DHT22;5906;51.660;6.674;2023-04-01T03:23:53;10.10;99.90
11700;DHT22;5906;51.660;6.674;2023-04-01T03:26:20;10.10;99.90
11700;DHT22;5906;51.660;6.674;2023-04-01T03:28:48;10.10;99.90
11700;DHT22;5906;51.660;6.674;2023-04-01T03:31:15;10.00;99.90
11700;DHT22;5906;51.660;6.674;2023-04-01T03:33:42;10.20;99.90
11700;DHT22;5906;51.660;6.674;2023-04-01T03:36:10;10.10;99.90
11700;DHT22;5906;51.660;6.674;2023-04-01T03:38:43;10.10;99.90
11700;DHT22;5906;51.660;6.674;2023-04-01T03:41:17;10.10;99.90
11700;DHT22;5906;51.660;6.674;2023-04-01T03:43:44;10.10;99.90
11700;DHT22;5906;51.660;6.674;2023-04-01T03:46:16;10.10;99.90
11700;DHT22;5906;51.660;6.674;2023-04-01T03:48:43;10.10;99.90
11700;DHT22;5906;51.660;6.674;2023-04-01T03:51:10;10.20;99.90
11700;DHT22;5906;51.660;6.674;2023-04-01T03:53:37;10.20;99.90
11700;DHT22;5906;51.660;6.674;2023-04-01T03:56:06;10.20;99.90
11700;DHT22;5906;51.660;6.674;2023-04-01T03:58:35;10.20;99.90
11700;DHT22;5906;51.660;6.674;2023-04-01T04:01:02;10.20;99.90
11700;DHT22;5906;51.660;6.674;2023-04-01T04:03:29;10.20;99.90
11700;DHT22;5906;51.660;6.674;2023-04-01T04:05:57;10.10;99.90
11700;DHT22;5906;51.660;6.674;2023-04-01T04:08:24;10.20;99.90
11700;DHT22;5906;51.660;6.674;2023-04-01T04:10:57;10.20;99.90
11700;DHT22;5906;51.660;6.674;2023-04-01T04:13:24;10.20;99.90
11700;DHT22;5906;51.660;6.674;2023-04-01T04:15:51;10.20;99.90
11700;DHT22;5906;51.660;6.674;2023-04-01T04:18:18;10.10;99.90
11700;DHT22;5906;51.660;6.674;2023-04-01T04:20:45;10.00;99.90
11700;DHT22;5906;51.660;6.674;2023-04-01T04:23:17;10.10;99.90
11700;DHT22;5906;51.660;6.674;2023-04-01T04:28:22;10.10;99.90
11700;DHT22;5906;51.660;6.674;2023-04-01T04:30:49;10.10;99.90
11700;DHT22;5906;51.660;6.674;2023-04-01T04:33:21;10.10;99.90
11700;DHT22;5906;51.660;6.674;2023-04-01T04:35:48;10.20;99.90
11700;DHT22;5906;51.660;6.674;2023-04-01T04:38:16;10.10;99.90
11700;DHT22;5906;51.660;6.674;2023-04-01T04:40:43;10.20;99.90
11700;DHT22;5906;51.660;6.674;2023-04-01T04:43:12;10.10;99.90
11700;DHT22;5906;51.660;6.674;2023-04-01T04:45:40;10.20;99.90
11700;DHT22;5906;51.660;6.674;2023-04-01T04:48:11;10.10;99.90
11700;DHT22;5906;51.660;6.674;2023-04-01T04:50:50;10.10;99.90
11700;DHT22;5906;51.660;6.674;2023-04-01T04:53:18;10.10;99.90
11700;DHT22;5906;51.660;6.674;2023-04-01T04:55:48;10.20;99.90
11700;DHT22;5906;51.660;6.674;2023-04-01T04:58:16;10.10;99.90
11700;DHT22;5906;51.660;6.674;2023-04-01T05:00:43;10.10;99.90
11700;DHT22;5906;51.660;6.674;2023-04-01T05:03:11;10.00;99.90
11700;DHT22;5906;51.660;6.674;2023-04-01T05:05:39;10.10;99.90
11700;DHT22;5906;51.660;6.674;2023-04-01T05:08:06;10.10;99.90
11700;DHT22;5906;51.660;6.674;2023-04-01T05:10:33;10.10;99.90
11700;DHT22;5906;51.660;6.674;2023-04-01T05:13:02;10.10;99.90
11700;DHT22;5906;51.660;6.674;2023-04-01T05:15:28;10.00;99.90
11700;DHT22;5906;51.660;6.674;2023-04-01T05:17:56;10.10;99.90
11700;DHT22;5906;51.660;6.674;2023-04-01T05:20:23;10.10;99.90
11700;DHT22;5906;51.660;6.674;2023-04-01T05:22:53;10.00;99.90
11700;DHT22;5906;51.660;6.674;2023-04-01T05:25:22;10.00;99.90
11700;DHT22;5906;51.660;6.674;2023-04-01T05:27:49;10.10;99.90
11700;DHT22;5906;51.660;6.674;2023-04-01T05:30:16;10.10;99.90
11700;DHT22;5906;51.660;6.674;2023-04-01T05:32:43;10.10;99.90
11700;DHT22;5906;51.660;6.674;2023-04-01T05:35:11;10.10;99.90
11700;DHT22;5906;51.660;6.674;2023-04-01T05:37:38;10.10;99.90
11700;DHT22;5906;51.660;6.674;2023-04-01T05:40:06;10.20;99.90
11700;DHT22;5906;51.660;6.674;2023-04-01T05:42:33;10.10;99.90
11700;DHT22;5906;51.660;6.674;2023-04-01T05:45:04;10.10;99.90
11700;DHT22;5906;51.660;6.674;2023-04-01T05:47:31;10.10;99.90
11700;DHT22;5906;51.660;6.674;2023-04-01T05:49:58;10.10;99.90
11700;DHT22;5906;51.660;6.674;2023-04-01T05:52:25;10.10;99.90
11700;DHT22;5906;51.660;6.674;2023-04-01T05:54:52;10.10;99.90
11700;DHT22;5906;51.660;6.674;2023-04-01T05:57:19;10.10;99.90
11700;DHT22;5906;51.660;6.674;2023-04-01T05:59:46;10.10;99.90
11700;DHT22;5906;51.660;6.674;2023-04-01T06:02:16;10.10;99.90
11700;DHT22;5906;51.660;6.674;2023-04-01T06:04:44;10.10;99.90
11700;DHT22;5906;51.660;6.674;2023-04-01T06:07:16;10.10;99.90
11700;DHT22;5906;51.660;6.674;2023-04-01T06:09:44;10.10;99.90
11700;DHT22;5906;51.660;6.674;2023-04-01T06:12:45;10.10;99.90
11700;DHT22;5906;51.660;6.674;2023-04-01T06:24:27;10.10;99.90
11700;DHT22;5906;51.660;6.674;2023-04-01T06:30:41;10.20;99.90
11700;DHT22;5906;51.660;6.674;2023-04-01T06:44:59;10.20;99.90
11700;DHT22;5906;51.660;6.674;2023-04-01T06:50:36;10.20;99.90
11700;DHT22;5906;51.660;6.674;2023-04-01T06:53:38;10.20;99.90
11700;DHT22;5906;51.660;6.674;2023-04-01T06:56:12;10.20;99.90
11700;DHT22;5906;51.660;6.674;2023-04-01T07:01:40;10.20;99.90
11700;DHT22;5906;51.660;6.674;2023-04-01T07:04:15;10.20;99.90
11700;DHT22;5906;51.660;6.674;2023-04-01T07:06:48;10.30;99.90
11700;DHT22;5906;51.660;6.674;2023-04-01T07:09:20;10.30;99.90
11700;DHT22;5906;51.660;6.674;2023-04-01T07:11:49;10.30;99.90
11700;DHT22;5906;51.660;6.674;2023-04-01T07:14:25;10.30;99.90
11700;DHT22;5906;51.660;6.674;2023-04-01T07:17:22;10.20;99.90
11700;DHT22;5906;51.660;6.674;2023-04-01T07:22:45;10.30;99.90
11700;DHT22;5906;51.660;6.674;2023-04-01T07:25:22;10.30;99.90
11700;DHT22;5906;51.660;6.674;2023-04-01T07:28:05;10.30;99.90
11700;DHT22;5906;51.660;6.674;2023-04-01T07:33:14;10.40;99.90
11700;DHT22;5906;51.660;6.674;2023-04-01T07:36:21;10.40;99.90
11700;DHT22;5906;51.660;6.674;2023-04-01T07:39:06;10.40;99.90
11700;DHT22;5906;51.660;6.674;2023-04-01T07:44:49;10.40;99.90
11700;DHT22;5906;51.660;6.674;2023-04-01T07:47:40;10.40;99.90
11700;DHT22;5906;51.660;6.674;2023-04-01T07:50:29;10.40;99.90
11700;DHT22;5906;51.660;6.674;2023-04-01T07:56:05;10.40;99.90
11700;DHT22;5906;51.660;6.674;2023-04-01T07:58:36;10.40;99.90
11700;DHT22;5906;51.660;6.674;2023-04-01T08:09:45;10.50;99.90
11700;DHT22;5906;51.660;6.674;2023-04-01T08:12:30;10.60;99.90
11700;DHT22;5906;51.660;6.674;2023-04-01T08:20:55;10.70;99.90
11700;DHT22;5906;51.660;6.674;2023-04-01T08:23:32;10.70;99.90
11700;DHT22;5906;51.660;6.674;2023-04-01T08:28:41;10.70;99.90
11700;DHT22;5906;51.660;6.674;2023-04-01T08:34:38;10.80;99.90
11700;DHT22;5906;51.660;6.674;2023-04-01T08:37:19;10.90;99.90
11700;DHT22;5906;51.660;6.674;2023-04-01T08:39:57;11.00;99.90
11700;DHT22;5906;51.660;6.674;2023-04-01T08:43:03;11.00;99.90
11700;DHT22;5906;51.660;6.674;2023-04-01T08:51:06;11.10;99.90
11700;DHT22;5906;51.660;6.674;2023-04-01T08:56:41;11.20;99.90
11700;DHT22;5906;51.660;6.674;2023-04-01T08:59:44;11.20;99.90
11700;DHT22;5906;51.660;6.674;2023-04-01T09:18:57;11.30;99.90
11700;DHT22;5906;51.660;6.674;2023-04-01T09:27:03;11.40;99.90
11700;DHT22;5906;51.660;6.674;2023-04-01T09:43:27;11.60;99.90
11700;DHT22;5906;51.660;6.674;2023-04-01T09:58:02;11.50;99.90
11700;DHT22;5906;51.660;6.674;2023-04-01T10:06:13;11.50;99.90
11700;DHT22;5906;51.660;6.674;2023-04-01T10:14:43;11.50;99.90
11700;DHT22;5906;51.660;6.674;2023-04-01T10:22:50;11.60;99.90
11700;DHT22;5906;51.660;6.674;2023-04-01T10:31:13;11.70;99.90
11700;DHT22;5906;51.660;6.674;2023-04-01T10:39:37;11.80;99.90
11700;DHT22;5906;51.660;6.674;2023-04-01T10:42:50;11.90;99.90
11700;DHT22;5906;51.660;6.674;2023-04-01T10:54:35;11.90;99.90
11700;DHT22;5906;51.660;6.674;2023-04-01T10:57:50;11.90;99.90
11700;DHT22;5906;51.660;6.674;2023-04-01T11:20:42;11.70;99.90
11700;DHT22;5906;51.660;6.674;2023-04-01T11:23:43;11.70;99.90
11700;DHT22;5906;51.660;6.674;2023-04-01T11:33:12;11.80;99.90
11700;DHT22;5906;51.660;6.674;2023-04-01T11:41:45;11.90;99.90
11700;DHT22;5906;51.660;6.674;2023-04-01T11:44:24;11.90;99.90
11700;DHT22;5906;51.660;6.674;2023-04-01T12:07:06;11.70;99.90
11700;DHT22;5906;51.660;6.674;2023-04-01T12:12:43;11.70;99.90
11700;DHT22;5906;51.660;6.674;2023-04-01T12:21:42;11.60;99.90
11700;DHT22;5906;51.660;6.674;2023-04-01T12:32:34;11.50;99.90
11700;DHT22;5906;51.660;6.674;2023-04-01T12:35:20;11.50;99.90
11700;DHT22;5906;51.660;6.674;2023-04-01T12:38:21;11.50;99.90
11700;DHT22;5906;51.660;6.674;2023-04-01T12:52:02;11.60;99.90
11700;DHT22;5906;51.660;6.674;2023-04-01T13:00:13;11.60;99.90
11700;DHT22;5906;51.660;6.674;2023-04-01T13:14:18;11.70;99.90
11700;DHT22;5906;51.660;6.674;2023-04-01T13:17:25;11.80;99.90
11700;DHT22;5906;51.660;6.674;2023-04-01T13:22:53;11.80;99.90
11700;DHT22;5906;51.660;6.674;2023-04-01T13:25:36;11.90;99.90
11700;DHT22;5906;51.660;6.674;2023-04-01T13:37:02;11.90;99.90
11700;DHT22;5906;51.660;6.674;2023-04-01T13:44:42;12.10;99.90
11700;DHT22;5906;51.660;6.674;2023-04-01T13:53:21;12.10;99.90
11700;DHT22;5906;51.660;6.674;2023-04-01T14:15:25;12.40;99.90
11700;DHT22;5906;51.660;6.674;2023-04-01T14:21:30;12.40;99.90
11700;DHT22;5906;51.660;6.674;2023-04-01T14:33:16;12.70;99.90
11700;DHT22;5906;51.660;6.674;2023-04-01T14:41:48;12.40;99.90
11700;DHT22;5906;51.660;6.674;2023-04-01T14:52:36;12.20;99.90
11700;DHT22;5906;51.660;6.674;2023-04-01T14:58:19;12.10;99.90
11700;DHT22;5906;51.660;6.674;2023-04-01T15:12:26;12.00;99.90
11700;DHT22;5906;51.660;6.674;2023-04-01T15:20:33;11.90;99.90
11700;DHT22;5906;51.660;6.674;2023-04-01T15:23:17;11.80;99.90
11700;DHT22;5906;51.660;6.674;2023-04-01T15:26:13;11.80;99.90
11700;DHT22;5906;51.660;6.674;2023-04-01T15:31:42;11.80;99.90
11700;DHT22;5906;51.660;6.674;2023-04-01T15:34:33;11.70;99.90
11700;DHT22;5906;51.660;6.674;2023-04-01T16:10:44;11.80;99.90
11700;DHT22;5906;51.660;6.674;2023-04-01T16:13:42;11.80;99.90
11700;DHT22;5906;51.660;6.674;2023-04-01T16:19:52;11.90;99.90
11700;DHT22;5906;51.660;6.674;2023-04-01T16:22:27;11.90;99.90
11700;DHT22;5906;51.660;6.674;2023-04-01T16:33:51;11.90;99.90
11700;DHT22;5906;51.660;6.674;2023-04-01T16:36:35;11.90;99.90
11700;DHT22;5906;51.660;6.674;2023-04-01T16:39:49;11.80;99.90
11700;DHT22;5906;51.660;6.674;2023-04-01T16:48:25;11.90;99.90
11700;DHT22;5906;51.660;6.674;2023-04-01T16:53:34;11.80;99.90
11700;DHT22;5906;51.660;6.674;2023-04-01T16:56:21;11.80;99.90
11700;DHT22;5906;51.660;6.674;2023-04-01T17:01:29;11.80;99.90
11700;DHT22;5906;51.660;6.674;2023-04-01T17:04:12;11.90;99.90
11700;DHT22;5906;51.660;6.674;2023-04-01T17:06:53;11.90;99.90
11700;DHT22;5906;51.660;6.674;2023-04-01T17:15:05;11.80;99.90
11700;DHT22;5906;51.660;6.674;2023-04-01T17:17:58;11.80;99.90
11700;DHT22;5906;51.660;6.674;2023-04-01T17:20:35;11.80;99.90
11700;DHT22;5906;51.660;6.674;2023-04-01T17:26:19;11.80;99.90
11700;DHT22;5906;51.660;6.674;2023-04-01T17:42:46;11.60;99.90
11700;DHT22;5906;51.660;6.674;2023-04-01T17:45:44;11.50;99.90
11700;DHT22;5906;51.660;6.674;2023-04-01T17:48:35;11.50;99.90
11700;DHT22;5906;51.660;6.674;2023-04-01T17:51:30;11.40;99.90
11700;DHT22;5906;51.660;6.674;2023-04-01T18:02:06;11.50;99.90
11700;DHT22;5906;51.660;6.674;2023-04-01T18:11:08;11.50;99.90
11700;DHT22;5906;51.660;6.674;2023-04-01T18:22:23;11.10;99.90
11700;DHT22;5906;51.660;6.674;2023-04-01T18:27:32;11.00;99.90
11700;DHT22;5906;51.660;6.674;2023-04-01T18:33:23;10.90;99.90
11700;DHT22;5906;51.660;6.674;2023-04-01T18:36:14;10.90;99.90
11700;DHT22;5906;51.660;6.674;2023-04-01T18:39:03;10.90;99.90
11700;DHT22;5906;51.660;6.674;2023-04-01T18:45:09;10.80;99.90
11700;DHT22;5906;51.660;6.674;2023-04-01T18:47:34;10.70;99.90
11700;DHT22;5906;51.660;6.674;2023-04-01T18:56:39;10.60;99.90
11700;DHT22;5906;51.660;6.674;2023-04-01T18:59:27;10.60;99.90
11700;DHT22;5906;51.660;6.674;2023-04-01T19:02:28;10.50;99.90
11700;DHT22;5906;51.660;6.674;2023-04-01T19:05:23;10.50;99.90
11700;DHT22;5906;51.660;6.674;2023-04-01T19:07:55;10.40;99.90
11700;DHT22;5906;51.660;6.674;2023-04-01T19:15:52;10.30;99.90
11700;DHT22;5906;51.660;6.674;2023-04-01T19:27:10;10.30;99.90
11700;DHT22;5906;51.660;6.674;2023-04-01T19:30:08;10.30;99.90
11700;DHT22;5906;51.660;6.674;2023-04-01T19:35:35;10.20;99.90
11700;DHT22;5906;51.660;6.674;2023-04-01T19:38:30;10.20;99.90
11700;DHT22;5906;51.660;6.674;2023-04-01T19:46:55;10.20;99.90
11700;DHT22;5906;51.660;6.674;2023-04-01T19:56:23;10.00;99.90
11700;DHT22;5906;51.660;6.674;2023-04-01T20:01:40;10.00;99.90
11700;DHT22;5906;51.660;6.674;2023-04-01T20:04:21;9.90;99.90
11700;DHT22;5906;51.660;6.674;2023-04-01T20:06:55;9.90;99.90
11700;DHT22;5906;51.660;6.674;2023-04-01T20:09:36;9.80;99.90
11700;DHT22;5906;51.660;6.674;2023-04-01T20:15:07;9.70;99.90
11700;DHT22;5906;51.660;6.674;2023-04-01T20:17:47;9.70;99.90
11700;DHT22;5906;51.660;6.674;2023-04-01T20:20:23;9.70;99.90
11700;DHT22;5906;51.660;6.674;2023-04-01T20:25:30;9.50;99.90
11700;DHT22;5906;51.660;6.674;2023-04-01T20:47:09;9.40;99.90
11700;DHT22;5906;51.660;6.674;2023-04-01T21:20:12;8.90;99.90
11700;DHT22;5906;51.660;6.674;2023-04-01T21:23:04;8.90;99.90
11700;DHT22;5906;51.660;6.674;2023-04-01T21:26:01;8.80;99.90
11700;DHT22;5906;51.660;6.674;2023-04-01T22:05:25;8.40;99.90
11700;DHT22;5906;51.660;6.674;2023-04-01T22:14:02;8.40;99.90
11700;DHT22;5906;51.660;6.674;2023-04-01T22:16:50;8.30;99.90
11700;DHT22;5906;51.660;6.674;2023-04-01T22:19:26;8.30;99.90
11700;DHT22;5906;51.660;6.674;2023-04-01T22:21:59;8.30;99.90
11700;DHT22;5906;51.660;6.674;2023-04-01T22:32:49;8.30;99.90
11700;DHT22;5906;51.660;6.674;2023-04-01T22:43:40;8.20;99.90
11700;DHT22;5906;51.660;6.674;2023-04-01T22:46:38;8.20;99.90
11700;DHT22;5906;51.660;6.674;2023-04-01T22:54:30;8.00;99.90
11700;DHT22;5906;51.660;6.674;2023-04-01T22:57:02;8.00;99.90
11700;DHT22;5906;51.660;6.674;2023-04-01T22:59:54;8.00;99.90
11700;DHT22;5906;51.660;6.674;2023-04-01T23:02:37;8.00;99.90
11700;DHT22;5906;51.660;6.674;2023-04-01T23:05:09;8.00;99.90
11700;DHT22;5906;51.660;6.674;2023-04-01T23:10:52;7.90;99.90
11700;DHT22;5906;51.660;6.674;2023-04-01T23:13:31;7.90;99.90
11700;DHT22;5906;51.660;6.674;2023-04-01T23:16:01;7.80;99.90
11700;DHT22;5906;51.660;6.674;2023-04-01T23:18:44;7.90;99.90
11700;DHT22;5906;51.660;6.674;2023-04-01T23:21:46;7.90;99.90
11700;DHT22;5906;51.660;6.674;2023-04-01T23:24:44;7.90;99.90
11700;DHT22;5906;51.660;6.674;2023-04-01T23:27:51;7.80;99.90
11700;DHT22;5906;51.660;6.674;2023-04-01T23:35:48;7.80;99.90
11700;DHT22;5906;51.660;6.674;2023-04-01T23:38:17;7.90;99.90
11700;DHT22;5906;51.660;6.674;2023-04-01T23:40:50;7.70;99.90
11700;DHT22;5906;51.660;6.674;2023-04-01T23:43:33;7.70;99.90
11700;DHT22;5906;51.660;6.674;2023-04-01T23:46:03;7.70;99.90
11700;DHT22;5906;51.660;6.674;2023-04-01T23:48:38;7.60;99.90
11700;DHT22;5906;51.660;6.674;2023-04-01T23:51:22;7.50;99.90
11700;DHT22;5906;51.660;6.674;2023-04-01T23:53:59;7.50;99.90
11700;DHT22;5906;51.660;6.674;2023-04-01T23:56:48;7.60;99.90
11700;DHT22;5906;51.660;6.674;2023-04-01T23:59:30;7.50;99.90
